^^
Station Historical Data
Daily Summary for October 19, 2017 Units:  Both    English   Metric
« Previous Day
Next Day »
Daily Weekly Monthly Yearly Custom
  High: Low: Average:
Temperature: TemperatureF °F /  -17.8 °C 51.6 °F /  10.9 °C 70 °F /  21.1 °C
Dew Point: DewpointF °F /  -17.8 °C -12.3 °F /  -24.6 °C 12.4 °F /  -10.9 °C
Humidity: Humidity% 3% 14%
Wind Speed: WindSpeedMPHmph /  0km/h - 1.1mph /  1.8km/h
Wind Gust: WindSpeedGustMPHmph /  0km/h - -
Wind- - SW
Pressure: PressureIn in /  0 hPa 29.71 in /  1006 hPa -
Precipitation: 0.00 in /  0 mm    
Historical Graphs
 
 
Tabular Data for October 19, 2017
Time Temperature Dew Point Pressure Wind Wind Speed Wind Gust Humidity Rainfall Rate (Hourly) solar Conditions
TemperatureF °F /  -17.8 °C DewpointF °F /  -17.8 °C PressureInin /  0hPa Calm     Humidity% HourlyPrecipInin /  0mm SolarRadiationWatts/m^2 W/m2 Conditions
00:03 59.5 °F /  15.3 °C 27.3 °F /  -2.6 °C 29.80in /  1009hPa Calm     29% 0.00in /  0mm 0.0 W/m2
00:08 59.4 °F /  15.2 °C 27.9 °F /  -2.3 °C 29.80in /  1009hPa Calm     30% 0.00in /  0mm 0.0 W/m2
00:13 59.2 °F /  15.1 °C 27.7 °F /  -2.4 °C 29.80in /  1009hPa Calm     30% 0.00in /  0mm 0.0 W/m2
00:18 58.8 °F /  14.9 °C 28.2 °F /  -2.1 °C 29.80in /  1009hPa Calm     31% 0.00in /  0mm 0.0 W/m2
00:23 58.6 °F /  14.8 °C 28.0 °F /  -2.2 °C 29.80in /  1009hPa Calm     31% 0.00in /  0mm 0.0 W/m2
00:28 58.5 °F /  14.7 °C 27.1 °F /  -2.7 °C 29.80in /  1009hPa Calm     30% 0.00in /  0mm 0.0 W/m2
00:34 58.1 °F /  14.5 °C 27.7 °F /  -2.4 °C 29.80in /  1009hPa Calm     31% 0.00in /  0mm 0.0 W/m2
00:39 57.9 °F /  14.4 °C 27.5 °F /  -2.5 °C 29.80in /  1009hPa Calm     31% 0.00in /  0mm 0.0 W/m2
00:45 57.6 °F /  14.2 °C 27.1 °F /  -2.7 °C 29.79in /  1008.7hPa Calm     31% 0.00in /  0mm 0.0 W/m2
00:50 57.4 °F /  14.1 °C 27.7 °F /  -2.4 °C 29.79in /  1008.7hPa Calm     32% 0.00in /  0mm 0.0 W/m2
00:55 57.4 °F /  14.1 °C 27.7 °F /  -2.4 °C 29.79in /  1008.7hPa Calm     32% 0.00in /  0mm 0.0 W/m2
01:00 57.2 °F /  14 °C 27.7 °F /  -2.4 °C 29.79in /  1008.7hPa Calm     32% 0.00in /  0mm 0.0 W/m2
01:05 57.0 °F /  13.9 °C 27.5 °F /  -2.5 °C 29.79in /  1008.7hPa Calm     32% 0.00in /  0mm 0.0 W/m2
01:10 56.8 °F /  13.8 °C 27.3 °F /  -2.6 °C 29.79in /  1008.7hPa Calm     32% 0.00in /  0mm 0.0 W/m2
01:16 56.8 °F /  13.8 °C 27.3 °F /  -2.6 °C 29.79in /  1008.7hPa Calm     32% 0.00in /  0mm 0.0 W/m2
01:21 56.7 °F /  13.7 °C 27.1 °F /  -2.7 °C 29.79in /  1008.7hPa Calm     32% 0.00in /  0mm 0.0 W/m2
01:26 56.7 °F /  13.7 °C 27.1 °F /  -2.7 °C 29.79in /  1008.7hPa Calm     32% 0.00in /  0mm 0.0 W/m2
01:31 56.5 °F /  13.6 °C 27.0 °F /  -2.8 °C 29.78in /  1008.4hPa Calm     32% 0.00in /  0mm 0.0 W/m2
01:36 56.5 °F /  13.6 °C 27.0 °F /  -2.8 °C 29.78in /  1008.4hPa Calm   1.0mph /  1.6km/h 32% 0.00in /  0mm 0.0 W/m2
01:41 56.3 °F /  13.5 °C 26.8 °F /  -2.9 °C 29.78in /  1008.4hPa Calm   1.0mph /  1.6km/h 32% 0.00in /  0mm 0.0 W/m2
01:46 56.1 °F /  13.4 °C 26.6 °F /  -3 °C 29.78in /  1008.4hPa East 0.9mph /  1.4km/h 2.0mph /  3.2km/h 32% 0.00in /  0mm 0.0 W/m2
01:51 56.1 °F /  13.4 °C 25.9 °F /  -3.4 °C 29.78in /  1008.4hPa NE 2.0mph /  3.2km/h 3.0mph /  4.8km/h 31% 0.00in /  0mm 0.0 W/m2
01:56 56.1 °F /  13.4 °C 25.9 °F /  -3.4 °C 29.78in /  1008.4hPa Calm     31% 0.00in /  0mm 0.0 W/m2
02:01 56.1 °F /  13.4 °C 25.9 °F /  -3.4 °C 29.78in /  1008.4hPa Calm   2.0mph /  3.2km/h 31% 0.00in /  0mm 0.0 W/m2
02:06 56.1 °F /  13.4 °C 25.9 °F /  -3.4 °C 29.78in /  1008.4hPa Calm   1.0mph /  1.6km/h 31% 0.00in /  0mm 0.0 W/m2
02:12 56.1 °F /  13.4 °C 25.2 °F /  -3.8 °C 29.77in /  1008hPa Calm   3.0mph /  4.8km/h 30% 0.00in /  0mm 0.0 W/m2
02:17 56.1 °F /  13.4 °C 25.2 °F /  -3.8 °C 29.77in /  1008hPa Calm   2.0mph /  3.2km/h 30% 0.00in /  0mm 0.0 W/m2
02:22 55.9 °F /  13.3 °C 25.0 °F /  -3.9 °C 29.77in /  1008hPa Calm   2.0mph /  3.2km/h 30% 0.00in /  0mm 0.0 W/m2
02:27 55.9 °F /  13.3 °C 25.0 °F /  -3.9 °C 29.77in /  1008hPa Calm   1.0mph /  1.6km/h 30% 0.00in /  0mm 0.0 W/m2
02:32 55.9 °F /  13.3 °C 25.0 °F /  -3.9 °C 29.77in /  1008hPa Calm   1.0mph /  1.6km/h 30% 0.00in /  0mm 0.0 W/m2
02:37 55.8 °F /  13.2 °C 23.9 °F /  -4.5 °C 29.76in /  1007.7hPa Calm   1.0mph /  1.6km/h 29% 0.00in /  0mm 0.0 W/m2
02:42 55.8 °F /  13.2 °C 23.9 °F /  -4.5 °C 29.76in /  1007.7hPa Calm   2.0mph /  3.2km/h 29% 0.00in /  0mm 0.0 W/m2
02:47 55.6 °F /  13.1 °C 23.9 °F /  -4.5 °C 29.76in /  1007.7hPa Calm     29% 0.00in /  0mm 0.0 W/m2
02:52 55.4 °F /  13 °C 23.7 °F /  -4.6 °C 29.76in /  1007.7hPa Calm   1.0mph /  1.6km/h 29% 0.00in /  0mm 0.0 W/m2
02:57 55.2 °F /  12.9 °C 23.5 °F /  -4.7 °C 29.75in /  1007.3hPa Calm     29% 0.00in /  0mm 0.0 W/m2
03:02 55.0 °F /  12.8 °C 22.5 °F /  -5.3 °C 29.75in /  1007.3hPa SE 0.9mph /  1.4km/h 2.0mph /  3.2km/h 28% 0.00in /  0mm 0.0 W/m2
03:08 55.0 °F /  12.8 °C 22.5 °F /  -5.3 °C 29.75in /  1007.3hPa Calm   3.0mph /  4.8km/h 28% 0.00in /  0mm 0.0 W/m2
03:13 55.0 °F /  12.8 °C 21.7 °F /  -5.7 °C 29.75in /  1007.3hPa Calm     27% 0.00in /  0mm 0.0 W/m2
03:18 54.9 °F /  12.7 °C 20.7 °F /  -6.3 °C 29.75in /  1007.3hPa Calm   1.0mph /  1.6km/h 26% 0.00in /  0mm 0.0 W/m2
03:23 54.9 °F /  12.7 °C 21.6 °F /  -5.8 °C 29.75in /  1007.3hPa Calm     27% 0.00in /  0mm 0.0 W/m2
03:28 54.7 °F /  12.6 °C 19.6 °F /  -6.9 °C 29.75in /  1007.3hPa Calm     25% 0.00in /  0mm 0.0 W/m2
03:33 54.3 °F /  12.4 °C 19.2 °F /  -7.1 °C 29.75in /  1007.3hPa Calm     25% 0.00in /  0mm 0.0 W/m2
03:39 54.1 °F /  12.3 °C 19.9 °F /  -6.7 °C 29.75in /  1007.3hPa Calm     26% 0.00in /  0mm 0.0 W/m2
03:44 54.0 °F /  12.2 °C 18.9 °F /  -7.3 °C 29.75in /  1007.3hPa Calm     25% 0.00in /  0mm 0.0 W/m2
03:50 54.0 °F /  12.2 °C 18.9 °F /  -7.3 °C 29.75in /  1007.3hPa Calm     25% 0.00in /  0mm 0.0 W/m2
03:55 54.0 °F /  12.2 °C 18.0 °F /  -7.8 °C 29.75in /  1007.3hPa Calm     24% 0.00in /  0mm 0.0 W/m2
04:00 53.8 °F /  12.1 °C 15.8 °F /  -9 °C 29.75in /  1007.3hPa Calm     22% 0.00in /  0mm 0.0 W/m2
04:05 53.4 °F /  11.9 °C 16.5 °F /  -8.6 °C 29.75in /  1007.3hPa Calm     23% 0.00in /  0mm 0.0 W/m2
04:10 53.1 °F /  11.7 °C 15.3 °F /  -9.3 °C 29.75in /  1007.3hPa Calm   1.0mph /  1.6km/h 22% 0.00in /  0mm 0.0 W/m2
04:15 53.1 °F /  11.7 °C 15.3 °F /  -9.3 °C 29.75in /  1007.3hPa Calm     22% 0.00in /  0mm 0.0 W/m2
04:20 52.9 °F /  11.6 °C 15.1 °F /  -9.4 °C 29.76in /  1007.7hPa Calm   1.0mph /  1.6km/h 22% 0.00in /  0mm 0.0 W/m2
04:25 52.5 °F /  11.4 °C 15.8 °F /  -9 °C 29.76in /  1007.7hPa Calm     23% 0.00in /  0mm 0.0 W/m2
04:30 52.3 °F /  11.3 °C 14.5 °F /  -9.7 °C 29.76in /  1007.7hPa Calm     22% 0.00in /  0mm 0.0 W/m2
04:36 52.2 °F /  11.2 °C 13.5 °F /  -10.3 °C 29.77in /  1008hPa Calm     21% 0.00in /  0mm 0.0 W/m2
04:41 52.2 °F /  11.2 °C 14.4 °F /  -9.8 °C 29.76in /  1007.7hPa Calm     22% 0.00in /  0mm 0.0 W/m2
04:46 52.0 °F /  11.1 °C 15.3 °F /  -9.3 °C 29.77in /  1008hPa Calm     23% 0.00in /  0mm 0.0 W/m2
04:51 51.8 °F /  11 °C 16.2 °F /  -8.8 °C 29.77in /  1008hPa Calm     24% 0.00in /  0mm 0.0 W/m2
04:56 52.0 °F /  11.1 °C 16.3 °F /  -8.7 °C 29.77in /  1008hPa Calm     24% 0.00in /  0mm 0.0 W/m2
05:01 52.0 °F /  11.1 °C 15.3 °F /  -9.3 °C 29.77in /  1008hPa Calm     23% 0.00in /  0mm 0.0 W/m2
05:06 52.2 °F /  11.2 °C 14.4 °F /  -9.8 °C 29.77in /  1008hPa Calm     22% 0.00in /  0mm 0.0 W/m2
05:13 52.2 °F /  11.2 °C 14.4 °F /  -9.8 °C 29.77in /  1008hPa Calm     22% 0.00in /  0mm 0.0 W/m2
05:23 52.2 °F /  11.2 °C 14.4 °F /  -9.8 °C 29.77in /  1008hPa Calm     22% 0.00in /  0mm 0.0 W/m2
05:24 52.2 °F /  11.2 °C 13.5 °F /  -10.3 °C 29.77in /  1008hPa Calm   1.0mph /  1.6km/h 21% 0.00in /  0mm 0.0 W/m2
05:29 52.0 °F /  11.1 °C 13.3 °F /  -10.4 °C 29.77in /  1008hPa Calm     21% 0.00in /  0mm 0.0 W/m2
05:30 52.0 °F /  11.1 °C 14.4 °F /  -9.8 °C 29.77in /  1008hPa Calm     22% 0.00in /  0mm 0.0 W/m2
05:32 52.0 °F /  11.1 °C 14.4 °F /  -9.8 °C 29.77in /  1008hPa Calm     22% 0.00in /  0mm 0.0 W/m2
05:34 51.8 °F /  11 °C 14.2 °F /  -9.9 °C 29.77in /  1008hPa Calm     22% 0.00in /  0mm 0.0 W/m2
05:35 52.0 °F /  11.1 °C 14.4 °F /  -9.8 °C 29.77in /  1008hPa Calm     22% 0.00in /  0mm 0.0 W/m2
05:40 51.8 °F /  11 °C 15.1 °F /  -9.4 °C 29.78in /  1008.4hPa Calm     23% 0.00in /  0mm 0.0 W/m2
05:42 52.0 °F /  11.1 °C 14.4 °F /  -9.8 °C 29.78in /  1008.4hPa Calm     22% 0.00in /  0mm 0.0 W/m2
05:47 52.0 °F /  11.1 °C 14.4 °F /  -9.8 °C 29.78in /  1008.4hPa Calm     22% 0.00in /  0mm 0.0 W/m2
05:53 52.2 °F /  11.2 °C 14.4 °F /  -9.8 °C 29.78in /  1008.4hPa Calm     22% 0.00in /  0mm 0.0 W/m2
05:58 52.2 °F /  11.2 °C 14.4 °F /  -9.8 °C 29.78in /  1008.4hPa Calm     22% 0.00in /  0mm 0.0 W/m2
05:59 52.2 °F /  11.2 °C 14.4 °F /  -9.8 °C 29.78in /  1008.4hPa Calm     22% 0.00in /  0mm 0.0 W/m2
06:05 52.2 °F /  11.2 °C 13.5 °F /  -10.3 °C 29.78in /  1008.4hPa Calm     21% 0.00in /  0mm 0.0 W/m2
06:10 52.2 °F /  11.2 °C 13.5 °F /  -10.3 °C 29.78in /  1008.4hPa Calm     21% 0.00in /  0mm 0.0 W/m2
06:15 52.2 °F /  11.2 °C 13.5 °F /  -10.3 °C 29.79in /  1008.7hPa Calm     21% 0.00in /  0mm 0.0 W/m2
06:20 52.0 °F /  11.1 °C 13.3 °F /  -10.4 °C 29.78in /  1008.4hPa Calm     21% 0.00in /  0mm 0.0 W/m2
06:25 52.0 °F /  11.1 °C 13.3 °F /  -10.4 °C 29.78in /  1008.4hPa Calm     21% 0.00in /  0mm 7.0 W/m2
06:30 51.6 °F /  10.9 °C 12.9 °F /  -10.6 °C 29.79in /  1008.7hPa Calm     21% 0.00in /  0mm 9.0 W/m2
06:35 51.6 °F /  10.9 °C 12.9 °F /  -10.6 °C 29.79in /  1008.7hPa Calm     21% 0.00in /  0mm 11.0 W/m2
06:40 51.6 °F /  10.9 °C 12.9 °F /  -10.6 °C 29.79in /  1008.7hPa Calm     21% 0.00in /  0mm 12.0 W/m2
06:46 51.6 °F /  10.9 °C 12.9 °F /  -10.6 °C 29.79in /  1008.7hPa Calm     21% 0.00in /  0mm 14.0 W/m2
06:51 51.6 °F /  10.9 °C 12.9 °F /  -10.6 °C 29.79in /  1008.7hPa Calm     21% 0.00in /  0mm 16.0 W/m2
06:56 51.6 °F /  10.9 °C 12.9 °F /  -10.6 °C 29.79in /  1008.7hPa Calm     21% 0.00in /  0mm 18.0 W/m2
07:01 51.6 °F /  10.9 °C 14.0 °F /  -10 °C 29.80in /  1009hPa Calm     22% 0.00in /  0mm 19.0 W/m2
07:06 52.0 °F /  11.1 °C 15.3 °F /  -9.3 °C 29.80in /  1009hPa Calm     23% 0.00in /  0mm 21.0 W/m2
07:11 52.2 °F /  11.2 °C 17.4 °F /  -8.1 °C 29.80in /  1009hPa Calm     25% 0.00in /  0mm 21.0 W/m2
07:16 52.5 °F /  11.4 °C 15.8 °F /  -9 °C 29.80in /  1009hPa Calm     23% 0.00in /  0mm 23.0 W/m2
07:21 52.9 °F /  11.6 °C 18.9 °F /  -7.3 °C 29.80in /  1009hPa Calm     26% 0.00in /  0mm 25.0 W/m2
07:26 53.2 °F /  11.8 °C 19.2 °F /  -7.1 °C 29.80in /  1009hPa Calm     26% 0.00in /  0mm 26.0 W/m2
07:32 54.0 °F /  12.2 °C 18.9 °F /  -7.3 °C 29.80in /  1009hPa Calm     25% 0.00in /  0mm 26.0 W/m2
07:37 54.7 °F /  12.6 °C 15.4 °F /  -9.2 °C 29.80in /  1009hPa Calm     21% 0.00in /  0mm 28.0 W/m2
07:42 55.2 °F /  12.9 °C 12.4 °F /  -10.9 °C 29.80in /  1009hPa Calm     18% 0.00in /  0mm 30.0 W/m2
07:47 56.7 °F /  13.7 °C 8.1 °F /  -13.3 °C 29.80in /  1009hPa Calm     14% 0.00in /  0mm 30.0 W/m2
07:52 57.7 °F /  14.3 °C 7.2 °F /  -13.8 °C 29.80in /  1009hPa Calm     13% 0.00in /  0mm 32.0 W/m2
07:57 58.8 °F /  14.9 °C 8.1 °F /  -13.3 °C 29.80in /  1009hPa Calm     13% 0.00in /  0mm 32.0 W/m2
08:03 60.8 °F /  16 °C 3.9 °F /  -15.6 °C 29.80in /  1009hPa Calm   2.0mph /  3.2km/h 10% 0.00in /  0mm 32.0 W/m2
08:08 62.8 °F /  17.1 °C 5.4 °F /  -14.8 °C 29.80in /  1009hPa WSW 0.9mph /  1.4km/h 2.0mph /  3.2km/h 10% 0.00in /  0mm 32.0 W/m2
08:14 64.9 °F /  18.3 °C 4.6 °F /  -15.2 °C 29.80in /  1009hPa Calm   2.0mph /  3.2km/h 9% 0.00in /  0mm 33.0 W/m2
08:19 66.7 °F /  19.3 °C 3.6 °F /  -15.8 °C 29.80in /  1009hPa SW 2.0mph /  3.2km/h 2.0mph /  3.2km/h 8% 0.00in /  0mm 44.0 W/m2
08:24 68.2 °F /  20.1 °C 1.8 °F /  -16.8 °C 29.80in /  1009hPa Calm   3.0mph /  4.8km/h 7% 0.00in /  0mm 473.0 W/m2
08:29 69.4 °F /  20.8 °C -0.6 °F /  -18.1 °C 29.80in /  1009hPa Calm   4.0mph /  6.4km/h 6% 0.00in /  0mm 496.0 W/m2
08:34 70.3 °F /  21.3 °C -3.8 °F /  -19.9 °C 29.80in /  1009hPa Calm   5.0mph /  8km/h 5% 0.00in /  0mm 515.0 W/m2
08:39 71.2 °F /  21.8 °C -3.3 °F /  -19.6 °C 29.80in /  1009hPa South 8.9mph /  14.3km/h 10.0mph /  16.1km/h 5% 0.00in /  0mm 534.0 W/m2
08:44 71.8 °F /  22.1 °C -2.7 °F /  -19.3 °C 29.80in /  1009hPa SW 0.9mph /  1.4km/h 10.0mph /  16.1km/h 5% 0.00in /  0mm 554.0 W/m2
08:49 72.1 °F /  22.3 °C -7.2 °F /  -21.8 °C 29.80in /  1009hPa SSE 2.0mph /  3.2km/h 6.0mph /  9.7km/h 4% 0.00in /  0mm 571.0 W/m2
08:55 72.9 °F /  22.7 °C -6.7 °F /  -21.5 °C 29.80in /  1009hPa ESE 0.9mph /  1.4km/h 6.0mph /  9.7km/h 4% 0.00in /  0mm 589.0 W/m2
09:01 73.2 °F /  22.9 °C -12.3 °F /  -24.6 °C 29.80in /  1009hPa South 4.0mph /  6.4km/h 12.0mph /  19.3km/h 3% 0.00in /  0mm 606.0 W/m2
09:06 73.6 °F /  23.1 °C -6.2 °F /  -21.2 °C 29.80in /  1009hPa South 4.9mph /  7.9km/h 8.0mph /  12.9km/h 4% 0.00in /  0mm 629.0 W/m2
09:11 73.9 °F /  23.3 °C -6.0 °F /  -21.1 °C 29.80in /  1009hPa SE 2.0mph /  3.2km/h 6.0mph /  9.7km/h 4% 0.00in /  0mm 645.0 W/m2
09:16 74.5 °F /  23.6 °C -5.6 °F /  -20.9 °C 29.80in /  1009hPa SSW 2.0mph /  3.2km/h 7.0mph /  11.3km/h 4% 0.00in /  0mm 663.0 W/m2
09:21 74.7 °F /  23.7 °C -11.4 °F /  -24.1 °C 29.80in /  1009hPa South 0.9mph /  1.4km/h 11.0mph /  17.7km/h 3% 0.00in /  0mm 680.0 W/m2
09:26 75.0 °F /  23.9 °C -5.3 °F /  -20.7 °C 29.80in /  1009hPa Calm   5.0mph /  8km/h 4% 0.00in /  0mm 694.0 W/m2
09:31 75.6 °F /  24.2 °C -4.9 °F /  -20.5 °C 29.80in /  1009hPa SSE 2.9mph /  4.7km/h 11.0mph /  17.7km/h 4% 0.00in /  0mm 714.0 W/m2
09:36 75.9 °F /  24.4 °C -4.5 °F /  -20.3 °C 29.80in /  1009hPa SSE 0.9mph /  1.4km/h 10.0mph /  16.1km/h 4% 0.00in /  0mm 731.0 W/m2
09:41 76.5 °F /  24.7 °C -4.2 °F /  -20.1 °C 29.80in /  1009hPa SSE 2.9mph /  4.7km/h 8.0mph /  12.9km/h 4% 0.00in /  0mm 744.0 W/m2
09:47 77.0 °F /  25 °C -9.8 °F /  -23.2 °C 29.80in /  1009hPa ESE 0.9mph /  1.4km/h 7.0mph /  11.3km/h 3% 0.00in /  0mm 765.0 W/m2
09:52 77.4 °F /  25.2 °C -9.6 °F /  -23.1 °C 29.80in /  1009hPa SE 8.9mph /  14.3km/h 9.0mph /  14.5km/h 3% 0.00in /  0mm 777.0 W/m2
09:57 77.7 °F /  25.4 °C -3.3 °F /  -19.6 °C 29.80in /  1009hPa South 2.0mph /  3.2km/h 4.0mph /  6.4km/h 4% 0.00in /  0mm 793.0 W/m2
10:02 78.3 °F /  25.7 °C -2.9 °F /  -19.4 °C 29.80in /  1009hPa East 6.0mph /  9.7km/h 8.0mph /  12.9km/h 4% 0.00in /  0mm 803.0 W/m2
10:07 78.6 °F /  25.9 °C -2.7 °F /  -19.3 °C 29.80in /  1009hPa Calm   3.0mph /  4.8km/h 4% 0.00in /  0mm 817.0 W/m2
10:12 78.6 °F /  25.9 °C 1.9 °F /  -16.7 °C 29.80in /  1009hPa SW 0.9mph /  1.4km/h 3.0mph /  4.8km/h 5% 0.00in /  0mm 833.0 W/m2
10:17 78.8 °F /  26 °C 2.1 °F /  -16.6 °C 29.80in /  1009hPa Calm   4.0mph /  6.4km/h 5% 0.00in /  0mm 844.0 W/m2
10:22 79.0 °F /  26.1 °C 6.3 °F /  -14.3 °C 29.80in /  1009hPa SW 0.9mph /  1.4km/h 5.0mph /  8km/h 6% 0.00in /  0mm 846.0 W/m2
10:27 79.2 °F /  26.2 °C 6.4 °F /  -14.2 °C 29.80in /  1009hPa Calm   5.0mph /  8km/h 6% 0.00in /  0mm 867.0 W/m2
10:33 79.7 °F /  26.5 °C 6.8 °F /  -14 °C 29.80in /  1009hPa South 0.9mph /  1.4km/h 4.0mph /  6.4km/h 6% 0.00in /  0mm 879.0 W/m2
10:38 80.2 °F /  26.8 °C 7.2 °F /  -13.8 °C 29.80in /  1009hPa SSW 2.9mph /  4.7km/h 3.0mph /  4.8km/h 6% 0.00in /  0mm 891.0 W/m2
10:43 80.6 °F /  27 °C 7.3 °F /  -13.7 °C 29.80in /  1009hPa SSE 2.9mph /  4.7km/h 4.0mph /  6.4km/h 6% 0.00in /  0mm 900.0 W/m2
10:49 81.1 °F /  27.3 °C 11.3 °F /  -11.5 °C 29.80in /  1009hPa SSE 0.9mph /  1.4km/h 6.0mph /  9.7km/h 7% 0.00in /  0mm 912.0 W/m2
10:54 81.7 °F /  27.6 °C 8.2 °F /  -13.2 °C 29.80in /  1009hPa SE 2.0mph /  3.2km/h 5.0mph /  8km/h 6% 0.00in /  0mm 923.0 W/m2
10:59 82.0 °F /  27.8 °C 8.4 °F /  -13.1 °C 29.79in /  1008.7hPa West 2.0mph /  3.2km/h 5.0mph /  8km/h 6% 0.00in /  0mm 937.0 W/m2
11:04 82.0 °F /  27.8 °C 8.4 °F /  -13.1 °C 29.79in /  1008.7hPa Calm   1.0mph /  1.6km/h 6% 0.00in /  0mm 946.0 W/m2
11:14 82.4 °F /  28 °C 8.8 °F /  -12.9 °C 29.79in /  1008.7hPa SW 0.9mph /  1.4km/h 5.0mph /  8km/h 6% 0.00in /  0mm 960.0 W/m2
11:19 82.0 °F /  27.8 °C 11.8 °F /  -11.2 °C 29.79in /  1008.7hPa Calm   4.0mph /  6.4km/h 7% 0.00in /  0mm 969.0 W/m2
11:25 82.2 °F /  27.9 °C 12.0 °F /  -11.1 °C 29.79in /  1008.7hPa WNW 4.9mph /  7.9km/h 8.0mph /  12.9km/h 7% 0.00in /  0mm 976.0 W/m2
11:31 82.6 °F /  28.1 °C 12.2 °F /  -11 °C 29.78in /  1008.4hPa SW 2.9mph /  4.7km/h 3.0mph /  4.8km/h 7% 0.00in /  0mm 984.0 W/m2
11:36 82.6 °F /  28.1 °C 12.2 °F /  -11 °C 29.78in /  1008.4hPa SW 0.9mph /  1.4km/h 10.0mph /  16.1km/h 7% 0.00in /  0mm 995.0 W/m2
11:41 83.1 °F /  28.4 °C 12.7 °F /  -10.7 °C 29.78in /  1008.4hPa WNW 0.9mph /  1.4km/h 1.0mph /  1.6km/h 7% 0.00in /  0mm 990.0 W/m2
11:46 83.5 °F /  28.6 °C 9.5 °F /  -12.5 °C 29.78in /  1008.4hPa NW 0.9mph /  1.4km/h 5.0mph /  8km/h 6% 0.00in /  0mm 1000.0 W/m2
11:51 84.0 °F /  28.9 °C 9.9 °F /  -12.3 °C 29.78in /  1008.4hPa West 0.9mph /  1.4km/h 6.0mph /  9.7km/h 6% 0.00in /  0mm 1000.0 W/m2
11:56 84.7 °F /  29.3 °C 10.4 °F /  -12 °C 29.78in /  1008.4hPa West 2.0mph /  3.2km/h 3.0mph /  4.8km/h 6% 0.00in /  0mm 1009.0 W/m2
12:01 85.1 °F /  29.5 °C 10.6 °F /  -11.9 °C 29.77in /  1008hPa Calm   4.0mph /  6.4km/h 6% 0.00in /  0mm 1021.0 W/m2
12:06 85.5 °F /  29.7 °C 6.8 °F /  -14 °C 29.77in /  1008hPa WNW 0.9mph /  1.4km/h 10.0mph /  16.1km/h 5% 0.00in /  0mm 1025.0 W/m2
12:11 84.9 °F /  29.4 °C 6.4 °F /  -14.2 °C 29.77in /  1008hPa Calm   7.0mph /  11.3km/h 5% 0.00in /  0mm 1032.0 W/m2
12:17 85.3 °F /  29.6 °C 6.8 °F /  -14 °C 29.77in /  1008hPa WNW 2.0mph /  3.2km/h 7.0mph /  11.3km/h 5% 0.00in /  0mm 1039.0 W/m2
12:22 85.8 °F /  29.9 °C 7.2 °F /  -13.8 °C 29.76in /  1007.7hPa NNW 2.0mph /  3.2km/h 5.0mph /  8km/h 5% 0.00in /  0mm 1034.0 W/m2
12:28 86.5 °F /  30.3 °C 7.5 °F /  -13.6 °C 29.76in /  1007.7hPa Calm   7.0mph /  11.3km/h 5% 0.00in /  0mm 1030.0 W/m2
12:33 86.5 °F /  30.3 °C 7.5 °F /  -13.6 °C 29.76in /  1007.7hPa North 2.9mph /  4.7km/h 11.0mph /  17.7km/h 5% 0.00in /  0mm 1044.0 W/m2
12:39 87.1 °F /  30.6 °C 8.1 °F /  -13.3 °C 29.76in /  1007.7hPa West 4.0mph /  6.4km/h 4.0mph /  6.4km/h 5% 0.00in /  0mm 1016.0 W/m2
12:44 86.7 °F /  30.4 °C 7.7 °F /  -13.5 °C 29.76in /  1007.7hPa WNW 4.9mph /  7.9km/h 5.0mph /  8km/h 5% 0.00in /  0mm 977.0 W/m2
12:49 87.1 °F /  30.6 °C 8.1 °F /  -13.3 °C 29.75in /  1007.3hPa Calm   11.0mph /  17.7km/h 5% 0.00in /  0mm 1046.0 W/m2
12:54 87.8 °F /  31 °C 8.4 °F /  -13.1 °C 29.75in /  1007.3hPa Calm   7.0mph /  11.3km/h 5% 0.00in /  0mm 1039.0 W/m2
13:00 88.3 °F /  31.3 °C 8.8 °F /  -12.9 °C 29.75in /  1007.3hPa WNW 4.0mph /  6.4km/h 13.0mph /  20.9km/h 5% 0.00in /  0mm 1032.0 W/m2
13:05 88.5 °F /  31.4 °C 9.0 °F /  -12.8 °C 29.75in /  1007.3hPa NNW 8.1mph /  13km/h 8.1mph /  13km/h 5% 0.00in /  0mm 1035.0 W/m2
13:10 88.9 °F /  31.6 °C 9.3 °F /  -12.6 °C 29.75in /  1007.3hPa WNW 2.0mph /  3.2km/h 7.0mph /  11.3km/h 5% 0.00in /  0mm 891.0 W/m2
13:15 88.0 °F /  31.1 °C 8.6 °F /  -13 °C 29.75in /  1007.3hPa West 6.0mph /  9.7km/h 6.0mph /  9.7km/h 5% 0.00in /  0mm 891.0 W/m2
13:20 87.3 °F /  30.7 °C 8.1 °F /  -13.3 °C 29.75in /  1007.3hPa WNW 4.0mph /  6.4km/h 6.0mph /  9.7km/h 5% 0.00in /  0mm 1049.0 W/m2
13:25 87.3 °F /  30.7 °C 3.2 °F /  -16 °C 29.75in /  1007.3hPa WNW 2.9mph /  4.7km/h 8.0mph /  12.9km/h 4% 0.00in /  0mm 967.0 W/m2
13:30 87.3 °F /  30.7 °C 8.1 °F /  -13.3 °C 29.75in /  1007.3hPa Calm   5.0mph /  8km/h 5% 0.00in /  0mm 921.0 W/m2
13:35 87.3 °F /  30.7 °C 8.1 °F /  -13.3 °C 29.74in /  1007hPa West 2.0mph /  3.2km/h 12.0mph /  19.3km/h 5% 0.00in /  0mm 809.0 W/m2
13:40 87.6 °F /  30.9 °C 3.6 °F /  -15.8 °C 29.74in /  1007hPa NW 2.0mph /  3.2km/h 6.0mph /  9.7km/h 4% 0.00in /  0mm 789.0 W/m2
13:46 87.6 °F /  30.9 °C 8.4 °F /  -13.1 °C 29.74in /  1007hPa WSW 2.0mph /  3.2km/h 5.0mph /  8km/h 5% 0.00in /  0mm 828.0 W/m2
13:51 88.3 °F /  31.3 °C 3.9 °F /  -15.6 °C 29.74in /  1007hPa WSW 4.9mph /  7.9km/h 8.0mph /  12.9km/h 4% 0.00in /  0mm 1053.0 W/m2
13:56 89.1 °F /  31.7 °C 4.5 °F /  -15.3 °C 29.74in /  1007hPa North 0.9mph /  1.4km/h 9.0mph /  14.5km/h 4% 0.00in /  0mm 930.0 W/m2
14:01 89.6 °F /  32 °C 4.8 °F /  -15.1 °C 29.74in /  1007hPa WNW 2.9mph /  4.7km/h 7.0mph /  11.3km/h 4% 0.00in /  0mm 729.0 W/m2
14:06 89.4 °F /  31.9 °C 4.6 °F /  -15.2 °C 29.73in /  1006.7hPa WNW 2.9mph /  4.7km/h 4.0mph /  6.4km/h 4% 0.00in /  0mm 1044.0 W/m2
14:11 89.2 °F /  31.8 °C 4.6 °F /  -15.2 °C 29.73in /  1006.7hPa South 0.9mph /  1.4km/h 6.0mph /  9.7km/h 4% 0.00in /  0mm 826.0 W/m2
14:16 88.9 °F /  31.6 °C 4.3 °F /  -15.4 °C 29.73in /  1006.7hPa Calm   5.0mph /  8km/h 4% 0.00in /  0mm 949.0 W/m2
14:21 88.3 °F /  31.3 °C 3.9 °F /  -15.6 °C 29.73in /  1006.7hPa WNW 0.9mph /  1.4km/h 13.0mph /  20.9km/h 4% 0.00in /  0mm 944.0 W/m2
14:27 88.2 °F /  31.2 °C 8.8 °F /  -12.9 °C 29.73in /  1006.7hPa Calm   4.0mph /  6.4km/h 5% 0.00in /  0mm 944.0 W/m2
14:33 88.7 °F /  31.5 °C 4.3 °F /  -15.4 °C 29.73in /  1006.7hPa WSW 4.0mph /  6.4km/h 10.0mph /  16.1km/h 4% 0.00in /  0mm 926.0 W/m2
14:38 88.9 °F /  31.6 °C 4.3 °F /  -15.4 °C 29.72in /  1006.3hPa WSW 2.0mph /  3.2km/h 12.0mph /  19.3km/h 4% 0.00in /  0mm 638.0 W/m2
14:43 88.5 °F /  31.4 °C 4.1 °F /  -15.5 °C 29.72in /  1006.3hPa SW 2.9mph /  4.7km/h 3.0mph /  4.8km/h 4% 0.00in /  0mm 643.0 W/m2
14:48 88.5 °F /  31.4 °C 4.1 °F /  -15.5 °C 29.72in /  1006.3hPa West 4.9mph /  7.9km/h 7.0mph /  11.3km/h 4% 0.00in /  0mm 675.0 W/m2
14:53 88.3 °F /  31.3 °C 3.9 °F /  -15.6 °C 29.72in /  1006.3hPa WNW 2.9mph /  4.7km/h 9.0mph /  14.5km/h 4% 0.00in /  0mm 761.0 W/m2
14:58 88.9 °F /  31.6 °C 4.3 °F /  -15.4 °C 29.72in /  1006.3hPa WNW 0.9mph /  1.4km/h 6.0mph /  9.7km/h 4% 0.00in /  0mm 624.0 W/m2
15:03 89.1 °F /  31.7 °C 4.5 °F /  -15.3 °C 29.71in /  1006hPa SW 4.9mph /  7.9km/h 11.0mph /  17.7km/h 4% 0.00in /  0mm 904.0 W/m2
15:08 89.6 °F /  32 °C 4.8 °F /  -15.1 °C 29.71in /  1006hPa WNW 2.9mph /  4.7km/h 8.0mph /  12.9km/h 4% 0.00in /  0mm 712.0 W/m2
15:13 90.1 °F /  32.3 °C -0.9 °F /  -18.3 °C 29.71in /  1006hPa North 4.0mph /  6.4km/h 7.0mph /  11.3km/h 3% 0.00in /  0mm 761.0 W/m2
15:18 90.5 °F /  32.5 °C 5.4 °F /  -14.8 °C 29.71in /  1006hPa WNW 2.9mph /  4.7km/h 10.0mph /  16.1km/h 4% 0.00in /  0mm 617.0 W/m2
15:24 90.1 °F /  32.3 °C 5.2 °F /  -14.9 °C 29.71in /  1006hPa WNW 0.9mph /  1.4km/h 8.0mph /  12.9km/h 4% 0.00in /  0mm 833.0 W/m2
15:29 90.5 °F /  32.5 °C 5.4 °F /  -14.8 °C 29.71in /  1006hPa Calm   7.0mph /  11.3km/h 4% 0.00in /  0mm 482.0 W/m2
15:34 90.3 °F /  32.4 °C 5.4 °F /  -14.8 °C 29.71in /  1006hPa West 6.0mph /  9.7km/h 11.0mph /  17.7km/h 4% 0.00in /  0mm 461.0 W/m2
15:39 89.4 °F /  31.9 °C 4.6 °F /  -15.2 °C 29.71in /  1006hPa West 6.9mph /  11.1km/h 7.0mph /  11.3km/h 4% 0.00in /  0mm 761.0 W/m2
15:44 89.4 °F /  31.9 °C 4.6 °F /  -15.2 °C 29.71in /  1006hPa WNW 4.9mph /  7.9km/h 11.0mph /  17.7km/h 4% 0.00in /  0mm 756.0 W/m2
15:50 89.8 °F /  32.1 °C -1.3 °F /  -18.5 °C 29.71in /  1006hPa East 4.9mph /  7.9km/h 7.0mph /  11.3km/h 3% 0.00in /  0mm 714.0 W/m2
15:55 90.0 °F /  32.2 °C -1.1 °F /  -18.4 °C 29.71in /  1006hPa NW 2.0mph /  3.2km/h 14.0mph /  22.5km/h 3% 0.00in /  0mm 617.0 W/m2
16:00 90.0 °F /  32.2 °C -1.1 °F /  -18.4 °C 29.72in /  1006.3hPa WNW 4.0mph /  6.4km/h 6.0mph /  9.7km/h 3% 0.00in /  0mm 635.0 W/m2
16:06 88.3 °F /  31.3 °C -2.2 °F /  -19 °C 29.72in /  1006.3hPa SSW 2.9mph /  4.7km/h 6.0mph /  9.7km/h 3% 0.00in /  0mm 675.0 W/m2
16:11 88.0 °F /  31.1 °C -2.4 °F /  -19.1 °C 29.72in /  1006.3hPa WNW 2.0mph /  3.2km/h 5.0mph /  8km/h 3% 0.00in /  0mm 469.0 W/m2
16:16 87.8 °F /  31 °C -2.6 °F /  -19.2 °C 29.72in /  1006.3hPa WSW 4.0mph /  6.4km/h 13.0mph /  20.9km/h 3% 0.00in /  0mm 513.0 W/m2
16:21 87.4 °F /  30.8 °C -2.7 °F /  -19.3 °C 29.72in /  1006.3hPa West 2.9mph /  4.7km/h 13.0mph /  20.9km/h 3% 0.00in /  0mm 387.0 W/m2
16:27 87.6 °F /  30.9 °C 3.6 °F /  -15.8 °C 29.72in /  1006.3hPa WNW 2.0mph /  3.2km/h 11.0mph /  17.7km/h 4% 0.00in /  0mm 517.0 W/m2
16:32 87.6 °F /  30.9 °C -2.7 °F /  -19.3 °C 29.72in /  1006.3hPa WSW 2.9mph /  4.7km/h 10.0mph /  16.1km/h 3% 0.00in /  0mm 258.0 W/m2
16:38 87.1 °F /  30.6 °C 3.0 °F /  -16.1 °C 29.72in /  1006.3hPa Calm   5.0mph /  8km/h 4% 0.00in /  0mm 543.0 W/m2
16:43 88.0 °F /  31.1 °C 3.7 °F /  -15.7 °C 29.72in /  1006.3hPa WNW 6.9mph /  11.1km/h 7.0mph /  11.3km/h 4% 0.00in /  0mm 499.0 W/m2
16:48 88.3 °F /  31.3 °C 3.9 °F /  -15.6 °C 29.71in /  1006hPa WNW 6.9mph /  11.1km/h 8.0mph /  12.9km/h 4% 0.00in /  0mm 469.0 W/m2
16:53 88.7 °F /  31.5 °C 4.3 °F /  -15.4 °C 29.72in /  1006.3hPa Calm   7.0mph /  11.3km/h 4% 0.00in /  0mm 413.0 W/m2
16:58 88.9 °F /  31.6 °C 4.3 °F /  -15.4 °C 29.72in /  1006.3hPa Calm   4.0mph /  6.4km/h 4% 0.00in /  0mm 441.0 W/m2
17:04 89.1 °F /  31.7 °C 4.5 °F /  -15.3 °C 29.72in /  1006.3hPa WSW 0.9mph /  1.4km/h 9.0mph /  14.5km/h 4% 0.00in /  0mm 373.0 W/m2
17:09 88.5 °F /  31.4 °C 4.1 °F /  -15.5 °C 29.72in /  1006.3hPa SW 2.9mph /  4.7km/h 6.0mph /  9.7km/h 4% 0.00in /  0mm 301.0 W/m2
17:14 87.6 °F /  30.9 °C 8.4 °F /  -13.1 °C 29.72in /  1006.3hPa WNW 8.9mph /  14.3km/h 9.0mph /  14.5km/h 5% 0.00in /  0mm 134.0 W/m2
17:20 86.4 °F /  30.2 °C 2.7 °F /  -16.3 °C 29.72in /  1006.3hPa WNW 0.9mph /  1.4km/h 8.0mph /  12.9km/h 4% 0.00in /  0mm 160.0 W/m2
17:25 85.6 °F /  29.8 °C 7.0 °F /  -13.9 °C 29.73in /  1006.7hPa West 6.0mph /  9.7km/h 9.0mph /  14.5km/h 5% 0.00in /  0mm 339.0 W/m2
17:30 85.1 °F /  29.5 °C 6.6 °F /  -14.1 °C 29.73in /  1006.7hPa WSW 2.0mph /  3.2km/h 4.0mph /  6.4km/h 5% 0.00in /  0mm 158.0 W/m2
17:36 84.6 °F /  29.2 °C 6.3 °F /  -14.3 °C 29.73in /  1006.7hPa WSW 0.9mph /  1.4km/h 8.0mph /  12.9km/h 5% 0.00in /  0mm 302.0 W/m2
17:42 84.7 °F /  29.3 °C 6.3 °F /  -14.3 °C 29.74in /  1007hPa West 2.0mph /  3.2km/h 8.0mph /  12.9km/h 5% 0.00in /  0mm 183.0 W/m2
17:47 84.9 °F /  29.4 °C 6.4 °F /  -14.2 °C 29.74in /  1007hPa West 4.9mph /  7.9km/h 7.0mph /  11.3km/h 5% 0.00in /  0mm 281.0 W/m2
17:53 84.9 °F /  29.4 °C 6.4 °F /  -14.2 °C 29.74in /  1007hPa West 2.0mph /  3.2km/h 8.0mph /  12.9km/h 5% 0.00in /  0mm 216.0 W/m2
17:58 84.7 °F /  29.3 °C 6.3 °F /  -14.3 °C 29.74in /  1007hPa West 0.9mph /  1.4km/h 9.0mph /  14.5km/h 5% 0.00in /  0mm 190.0 W/m2
18:03 84.4 °F /  29.1 °C 10.0 °F /  -12.2 °C 29.74in /  1007hPa West 4.9mph /  7.9km/h 6.0mph /  9.7km/h 6% 0.00in /  0mm 181.0 W/m2
18:09 84.0 °F /  28.9 °C 9.9 °F /  -12.3 °C 29.75in /  1007.3hPa West 0.9mph /  1.4km/h 8.0mph /  12.9km/h 6% 0.00in /  0mm 149.0 W/m2
18:14 83.7 °F /  28.7 °C 9.7 °F /  -12.4 °C 29.74in /  1007hPa WSW 0.9mph /  1.4km/h 6.0mph /  9.7km/h 6% 0.00in /  0mm 121.0 W/m2
18:19 83.5 °F /  28.6 °C 9.5 °F /  -12.5 °C 29.75in /  1007.3hPa West 0.9mph /  1.4km/h 5.0mph /  8km/h 6% 0.00in /  0mm 97.0 W/m2
18:25 82.9 °F /  28.3 °C 9.1 °F /  -12.7 °C 29.75in /  1007.3hPa WSW 2.9mph /  4.7km/h 9.0mph /  14.5km/h 6% 0.00in /  0mm 70.0 W/m2
18:30 82.6 °F /  28.1 °C 8.8 °F /  -12.9 °C 29.75in /  1007.3hPa WSW 2.9mph /  4.7km/h 8.0mph /  12.9km/h 6% 0.00in /  0mm 53.0 W/m2
18:35 82.0 °F /  27.8 °C 11.8 °F /  -11.2 °C 29.75in /  1007.3hPa SW 2.0mph /  3.2km/h 6.0mph /  9.7km/h 7% 0.00in /  0mm 33.0 W/m2
18:41 81.1 °F /  27.3 °C 11.3 °F /  -11.5 °C 29.76in /  1007.7hPa WSW 0.9mph /  1.4km/h 8.0mph /  12.9km/h 7% 0.00in /  0mm 18.0 W/m2
18:46 80.2 °F /  26.8 °C 10.6 °F /  -11.9 °C 29.76in /  1007.7hPa SW 4.9mph /  7.9km/h 5.0mph /  8km/h 7% 0.00in /  0mm 12.0 W/m2
18:51 79.5 °F /  26.4 °C 13.1 °F /  -10.5 °C 29.76in /  1007.7hPa West 4.9mph /  7.9km/h 7.0mph /  11.3km/h 8% 0.00in /  0mm 9.0 W/m2
18:57 78.8 °F /  26 °C 12.6 °F /  -10.8 °C 29.77in /  1008hPa West 2.0mph /  3.2km/h 5.0mph /  8km/h 8% 0.00in /  0mm 5.0 W/m2
19:02 78.3 °F /  25.7 °C 12.2 °F /  -11 °C 29.77in /  1008hPa Calm   3.0mph /  4.8km/h 8% 0.00in /  0mm 0.0 W/m2
19:07 77.7 °F /  25.4 °C 11.7 °F /  -11.3 °C 29.77in /  1008hPa Calm   1.0mph /  1.6km/h 8% 0.00in /  0mm 0.0 W/m2
19:12 77.4 °F /  25.2 °C 14.2 °F /  -9.9 °C 29.77in /  1008hPa Calm   5.0mph /  8km/h 9% 0.00in /  0mm 0.0 W/m2
19:17 76.8 °F /  24.9 °C 13.6 °F /  -10.2 °C 29.78in /  1008.4hPa Calm   6.0mph /  9.7km/h 9% 0.00in /  0mm 0.0 W/m2
19:23 76.5 °F /  24.7 °C 10.8 °F /  -11.8 °C 29.78in /  1008.4hPa Calm   4.0mph /  6.4km/h 8% 0.00in /  0mm 0.0 W/m2
19:28 76.1 °F /  24.5 °C 10.6 °F /  -11.9 °C 29.78in /  1008.4hPa Calm   5.0mph /  8km/h 8% 0.00in /  0mm 0.0 W/m2
19:33 75.7 °F /  24.3 °C 10.2 °F /  -12.1 °C 29.78in /  1008.4hPa Calm   2.0mph /  3.2km/h 8% 0.00in /  0mm 0.0 W/m2
19:39 75.4 °F /  24.1 °C 10.0 °F /  -12.2 °C 29.78in /  1008.4hPa Calm   2.0mph /  3.2km/h 8% 0.00in /  0mm 0.0 W/m2
19:44 75.0 °F /  23.9 °C 12.4 °F /  -10.9 °C 29.78in /  1008.4hPa Calm   5.0mph /  8km/h 9% 0.00in /  0mm 0.0 W/m2
19:49 74.8 °F /  23.8 °C 12.2 °F /  -11 °C 29.79in /  1008.7hPa Calm   2.0mph /  3.2km/h 9% 0.00in /  0mm 0.0 W/m2
19:55 74.5 °F /  23.6 °C 12.0 °F /  -11.1 °C 29.79in /  1008.7hPa Calm   2.0mph /  3.2km/h 9% 0.00in /  0mm 0.0 W/m2
20:00 73.9 °F /  23.3 °C 14.0 °F /  -10 °C 29.80in /  1009hPa Calm   3.0mph /  4.8km/h 10% 0.00in /  0mm 0.0 W/m2
20:06 73.6 °F /  23.1 °C 13.6 °F /  -10.2 °C 29.80in /  1009hPa Calm   2.0mph /  3.2km/h 10% 0.00in /  0mm 0.0 W/m2
20:12 73.2 °F /  22.9 °C 15.6 °F /  -9.1 °C 29.80in /  1009hPa Calm   1.0mph /  1.6km/h 11% 0.00in /  0mm 0.0 W/m2
20:17 72.9 °F /  22.7 °C 15.3 °F /  -9.3 °C 29.80in /  1009hPa Calm   3.0mph /  4.8km/h 11% 0.00in /  0mm 0.0 W/m2
20:22 72.3 °F /  22.4 °C 16.9 °F /  -8.4 °C 29.81in /  1009.4hPa WSW 4.9mph /  7.9km/h 7.0mph /  11.3km/h 12% 0.00in /  0mm 0.0 W/m2
20:27 72.0 °F /  22.2 °C 16.5 °F /  -8.6 °C 29.81in /  1009.4hPa West 2.0mph /  3.2km/h 5.0mph /  8km/h 12% 0.00in /  0mm 0.0 W/m2
20:32 71.6 °F /  22 °C 18.1 °F /  -7.7 °C 29.81in /  1009.4hPa WSW 0.9mph /  1.4km/h 5.0mph /  8km/h 13% 0.00in /  0mm 0.0 W/m2
20:37 71.2 °F /  21.8 °C 17.8 °F /  -7.9 °C 29.82in /  1009.7hPa Calm   1.0mph /  1.6km/h 13% 0.00in /  0mm 0.0 W/m2
20:42 70.9 °F /  21.6 °C 19.2 °F /  -7.1 °C 29.82in /  1009.7hPa Calm     14% 0.00in /  0mm 0.0 W/m2
20:47 70.5 °F /  21.4 °C 19.0 °F /  -7.2 °C 29.82in /  1009.7hPa Calm   2.0mph /  3.2km/h 14% 0.00in /  0mm 0.0 W/m2
20:53 70.2 °F /  21.2 °C 20.3 °F /  -6.5 °C 29.82in /  1009.7hPa Calm     15% 0.00in /  0mm 0.0 W/m2
20:58 70.0 °F /  21.1 °C 20.1 °F /  -6.6 °C 29.83in /  1010hPa Calm     15% 0.00in /  0mm 0.0 W/m2
21:03 69.6 °F /  20.9 °C 19.9 °F /  -6.7 °C 29.83in /  1010hPa Calm     15% 0.00in /  0mm 0.0 W/m2
21:09 69.3 °F /  20.7 °C 19.6 °F /  -6.9 °C 29.83in /  1010hPa Calm     15% 0.00in /  0mm 0.0 W/m2
21:14 68.9 °F /  20.5 °C 20.8 °F /  -6.2 °C 29.83in /  1010hPa Calm   3.0mph /  4.8km/h 16% 0.00in /  0mm 0.0 W/m2
21:19 68.5 °F /  20.3 °C 20.5 °F /  -6.4 °C 29.83in /  1010hPa Calm     16% 0.00in /  0mm 0.0 W/m2
21:25 68.2 °F /  20.1 °C 20.3 °F /  -6.5 °C 29.83in /  1010hPa Calm   1.0mph /  1.6km/h 16% 0.00in /  0mm 0.0 W/m2
21:30 67.8 °F /  19.9 °C 21.4 °F /  -5.9 °C 29.83in /  1010hPa Calm   3.0mph /  4.8km/h 17% 0.00in /  0mm 0.0 W/m2
21:35 67.6 °F /  19.8 °C 21.2 °F /  -6 °C 29.84in /  1010.4hPa Calm   1.0mph /  1.6km/h 17% 0.00in /  0mm 0.0 W/m2
21:41 67.5 °F /  19.7 °C 21.2 °F /  -6 °C 29.84in /  1010.4hPa Calm     17% 0.00in /  0mm 0.0 W/m2
21:46 67.3 °F /  19.6 °C 22.3 °F /  -5.4 °C 29.84in /  1010.4hPa Calm   1.0mph /  1.6km/h 18% 0.00in /  0mm 0.0 W/m2
21:51 66.9 °F /  19.4 °C 22.1 °F /  -5.5 °C 29.84in /  1010.4hPa Calm     18% 0.00in /  0mm 0.0 W/m2
21:56 66.7 °F /  19.3 °C 21.9 °F /  -5.6 °C 29.84in /  1010.4hPa Calm     18% 0.00in /  0mm 0.0 W/m2
22:01 66.6 °F /  19.2 °C 21.7 °F /  -5.7 °C 29.84in /  1010.4hPa Calm     18% 0.00in /  0mm 0.0 W/m2
22:07 66.4 °F /  19.1 °C 21.6 °F /  -5.8 °C 29.84in /  1010.4hPa Calm     18% 0.00in /  0mm 0.0 W/m2
22:12 66.2 °F /  19 °C 22.6 °F /  -5.2 °C 29.84in /  1010.4hPa Calm   1.0mph /  1.6km/h 19% 0.00in /  0mm 0.0 W/m2
22:17 65.8 °F /  18.8 °C 22.5 °F /  -5.3 °C 29.84in /  1010.4hPa Calm     19% 0.00in /  0mm 0.0 W/m2
22:23 65.7 °F /  18.7 °C 22.3 °F /  -5.4 °C 29.84in /  1010.4hPa Calm   1.0mph /  1.6km/h 19% 0.00in /  0mm 0.0 W/m2
22:28 65.5 °F /  18.6 °C 22.1 °F /  -5.5 °C 29.84in /  1010.4hPa Calm     19% 0.00in /  0mm 0.0 W/m2
22:33 65.3 °F /  18.5 °C 21.9 °F /  -5.6 °C 29.84in /  1010.4hPa Calm   2.0mph /  3.2km/h 19% 0.00in /  0mm 0.0 W/m2
22:39 65.1 °F /  18.4 °C 23.0 °F /  -5 °C 29.84in /  1010.4hPa Calm     20% 0.00in /  0mm 0.0 W/m2
22:44 64.9 °F /  18.3 °C 22.8 °F /  -5.1 °C 29.84in /  1010.4hPa Calm     20% 0.00in /  0mm 0.0 W/m2
22:49 64.8 °F /  18.2 °C 22.8 °F /  -5.1 °C 29.84in /  1010.4hPa Calm     20% 0.00in /  0mm 0.0 W/m2
22:55 64.4 °F /  18 °C 22.5 °F /  -5.3 °C 29.84in /  1010.4hPa Calm     20% 0.00in /  0mm 0.0 W/m2
23:00 64.0 °F /  17.8 °C 22.1 °F /  -5.5 °C 29.84in /  1010.4hPa Calm     20% 0.00in /  0mm 0.0 W/m2
23:05 63.7 °F /  17.6 °C 21.9 °F /  -5.6 °C 29.84in /  1010.4hPa Calm     20% 0.00in /  0mm 0.0 W/m2
23:11 63.1 °F /  17.3 °C 22.6 °F /  -5.2 °C 29.85in /  1010.7hPa Calm     21% 0.00in /  0mm 0.0 W/m2
23:16 62.8 °F /  17.1 °C 22.3 °F /  -5.4 °C 29.85in /  1010.7hPa Calm     21% 0.00in /  0mm 0.0 W/m2
23:21 62.4 °F /  16.9 °C 21.9 °F /  -5.6 °C 29.85in /  1010.7hPa Calm     21% 0.00in /  0mm 0.0 W/m2
23:26 62.1 °F /  16.7 °C 22.8 °F /  -5.1 °C 29.85in /  1010.7hPa Calm     22% 0.00in /  0mm 0.0 W/m2
23:32 61.7 °F /  16.5 °C 21.4 °F /  -5.9 °C 29.85in /  1010.7hPa Calm     21% 0.00in /  0mm 0.0 W/m2
23:37 61.3 °F /  16.3 °C 22.1 °F /  -5.5 °C 29.85in /  1010.7hPa Calm     22% 0.00in /  0mm 0.0 W/m2
23:42 61.0 °F /  16.1 °C 21.9 °F /  -5.6 °C 29.85in /  1010.7hPa Calm     22% 0.00in /  0mm 0.0 W/m2
23:48 60.6 °F /  15.9 °C 21.6 °F /  -5.8 °C 29.85in /  1010.7hPa Calm     22% 0.00in /  0mm 0.0 W/m2
23:53 60.3 °F /  15.7 °C 21.2 °F /  -6 °C 29.85in /  1010.7hPa Calm     22% 0.00in /  0mm 0.0 W/m2
23:59 60.1 °F /  15.6 °C 21.0 °F /  -6.1 °C 29.85in /  1010.7hPa Calm     22% 0.00in /  0mm 0.0 W/m2
Olympia, Windhoek, Namibia
Compliments of Weather Underground - 3.25 mb